Terminal Aerodrome Forecast
Issued by NWS

Home | Current Version | Previous Version | Text Only | Print | Product List | Glossary On
Versions: 1 2 3 4 5 6 7 8 9 10 11 12 13 14 15 16 17 18 19 20 21 22 23 24 25 26 27 28 29 30 31 32 33 34 35 36
000
FTAK31 PANC 230206 AAA
TAFADL
TAF AMD
PADL 230206Z 2302/2324 33010KT P6SM SCT025 BKN040
     FM231500 35003KT P6SM SCT025 BKN040
     FM232200 02005KT P6SM SCT040 BKN200=

USA.gov is the U.S. government's official web portal to all federal, state and local government web resources and services.